createdAt,value
2023-03-02T00:00:36.021Z,64.32
2023-03-02T00:03:21.534Z,64.33
2023-03-02T00:05:55.944Z,64.23
2023-03-02T00:08:30.763Z,64.35
2023-03-02T00:11:05.201Z,64.30
2023-03-02T00:13:40.412Z,64.47
2023-03-02T00:16:14.122Z,64.52
2023-03-02T00:18:47.512Z,64.54
2023-03-02T00:21:21.131Z,64.54
2023-03-02T00:23:54.746Z,64.69
2023-03-02T00:26:28.324Z,64.62
2023-03-02T00:29:01.908Z,64.52
2023-03-02T00:31:36.025Z,64.56
2023-03-02T00:34:10.310Z,64.55
2023-03-02T00:36:44.274Z,64.67
2023-03-02T00:39:20.776Z,64.72
2023-03-02T00:41:54.877Z,64.96
2023-03-02T00:44:28.259Z,64.94
2023-03-02T00:47:02.106Z,64.87
2023-03-02T00:49:37.815Z,64.76
2023-03-02T00:52:11.392Z,64.86
2023-03-02T00:54:45.584Z,65.00
2023-03-02T00:57:19.549Z,65.07
2023-03-02T00:59:53.423Z,64.97
2023-03-02T01:02:31.936Z,64.97
2023-03-02T01:05:06.183Z,64.99
2023-03-02T01:07:40.262Z,65.00
2023-03-02T01:10:15.926Z,65.20
2023-03-02T01:12:49.660Z,65.39
2023-03-02T01:15:23.431Z,65.47
2023-03-02T01:17:56.753Z,65.47
2023-03-02T01:20:30.658Z,65.42
2023-03-02T01:23:04.269Z,65.35
2023-03-02T01:25:39.346Z,65.31
2023-03-02T01:28:12.951Z,65.43
2023-03-02T01:30:46.650Z,65.46
2023-03-02T01:33:20.490Z,65.50
2023-03-02T01:35:54.500Z,65.36
2023-03-02T01:38:28.388Z,65.26
2023-03-02T01:41:02.185Z,65.39
2023-03-02T01:43:35.858Z,65.56
2023-03-02T01:46:15.120Z,65.69
2023-03-02T01:48:57.103Z,65.69
2023-03-02T01:51:47.676Z,65.81
2023-03-02T01:54:24.718Z,65.68
2023-03-02T01:57:05.033Z,65.70
2023-03-02T01:59:42.622Z,65.85
2023-03-02T02:02:16.978Z,66.08
2023-03-02T02:04:52.127Z,66.28
2023-03-02T02:07:26.304Z,66.59
2023-03-02T02:10:00.877Z,66.73
2023-03-02T02:12:34.937Z,66.94
2023-03-02T02:15:10.589Z,67.06
2023-03-02T02:17:44.270Z,67.39
2023-03-02T02:20:28.715Z,67.62
2023-03-02T02:23:12.594Z,67.86
2023-03-02T02:25:55.665Z,67.93
2023-03-02T02:28:33.473Z,68.13
2023-03-02T02:31:16.183Z,68.14
2023-03-02T02:33:54.229Z,68.21
2023-03-02T02:36:33.886Z,68.15
2023-03-02T02:39:17.411Z,68.21
2023-03-02T02:41:53.622Z,68.21
2023-03-02T02:44:27.056Z,68.19
2023-03-02T02:47:00.478Z,68.23
2023-03-02T02:49:36.687Z,68.10
2023-03-02T02:52:15.799Z,68.10
2023-03-02T02:54:53.055Z,68.11
2023-03-02T02:57:31.098Z,68.05
2023-03-02T03:00:07.009Z,68.16
2023-03-02T03:02:47.362Z,68.02
2023-03-02T03:05:21.164Z,68.02
2023-03-02T03:07:55.059Z,68.07
2023-03-02T03:10:36.498Z,68.15
2023-03-02T03:13:12.902Z,68.04
2023-03-02T03:15:46.835Z,67.94
2023-03-02T03:18:26.034Z,67.94
2023-03-02T03:20:59.678Z,67.91
2023-03-02T03:23:39.192Z,67.80
2023-03-02T03:26:13.299Z,67.77
2023-03-02T03:28:47.117Z,67.62
2023-03-02T03:31:20.892Z,67.57
2023-03-02T03:33:54.483Z,67.65
2023-03-02T03:36:28.604Z,67.75
2023-03-02T03:39:02.670Z,67.75
2023-03-02T03:41:36.825Z,67.62
2023-03-02T03:44:10.885Z,67.57
2023-03-02T03:46:45.035Z,67.46
2023-03-02T03:49:19.275Z,67.41
2023-03-02T03:51:53.160Z,67.38
2023-03-02T03:54:27.099Z,67.40
2023-03-02T03:57:00.714Z,67.43
2023-03-02T03:59:34.888Z,67.33
2023-03-02T04:02:09.969Z,67.21
2023-03-02T04:04:47.446Z,67.31
2023-03-02T04:07:24.017Z,67.17
2023-03-02T04:10:04.395Z,67.03
2023-03-02T04:12:42.787Z,67.06
2023-03-02T04:15:19.716Z,67.15
2023-03-02T04:17:54.883Z,67.21
2023-03-02T04:20:31.405Z,67.13
2023-03-02T04:23:05.459Z,67.02
2023-03-02T04:25:39.314Z,67.15
2023-03-02T04:28:20.818Z,67.08
2023-03-02T04:30:55.228Z,67.09
2023-03-02T04:33:29.802Z,66.98
2023-03-02T04:36:03.875Z,67.19
2023-03-02T04:38:37.371Z,67.12
2023-03-02T04:41:11.275Z,67.15
2023-03-02T04:43:45.460Z,67.04
2023-03-02T04:46:24.412Z,66.95
2023-03-02T04:48:58.263Z,66.97
2023-03-02T04:51:34.665Z,67.00
2023-03-02T04:54:12.726Z,67.13
2023-03-02T04:56:48.938Z,67.02
2023-03-02T04:59:26.310Z,67.04
2023-03-02T05:02:02.122Z,67.12
2023-03-02T05:04:36.367Z,67.02
2023-03-02T05:07:10.263Z,66.98
2023-03-02T05:09:44.195Z,66.90
2023-03-02T05:12:19.550Z,67.07
2023-03-02T05:14:53.629Z,67.05
2023-03-02T05:17:27.601Z,67.04
2023-03-02T05:20:01.375Z,66.94
2023-03-02T05:22:35.180Z,66.88
2023-03-02T05:25:09.902Z,66.87
2023-03-02T05:27:43.762Z,66.98
2023-03-02T05:30:18.748Z,67.02
2023-03-02T05:32:53.442Z,66.95
2023-03-02T05:35:27.894Z,66.92
2023-03-02T05:38:01.519Z,66.81
2023-03-02T05:40:35.491Z,66.81
2023-03-02T05:43:09.849Z,66.90
2023-03-02T05:45:43.392Z,66.96
2023-03-02T05:48:17.840Z,66.90
2023-03-02T05:50:51.671Z,66.85
2023-03-02T05:53:25.293Z,66.87
2023-03-02T05:55:59.194Z,67.04
2023-03-02T05:58:32.922Z,66.90
2023-03-02T06:01:15.432Z,66.94
2023-03-02T06:03:49.943Z,66.87
2023-03-02T06:06:23.660Z,66.84
2023-03-02T06:08:57.625Z,66.75
2023-03-02T06:11:31.475Z,66.73
2023-03-02T06:14:04.971Z,66.77
2023-03-02T06:16:38.869Z,66.94
2023-03-02T06:19:12.308Z,67.00
2023-03-02T06:21:46.030Z,66.94
2023-03-02T06:24:20.425Z,66.82
2023-03-02T06:26:56.231Z,66.78
2023-03-02T06:29:30.232Z,66.80
2023-03-02T06:32:03.862Z,66.63
2023-03-02T06:34:37.572Z,66.68
2023-03-02T06:37:11.516Z,66.72
2023-03-02T06:39:45.294Z,66.78
2023-03-02T06:42:18.872Z,66.83
2023-03-02T06:44:55.110Z,66.88
2023-03-02T06:47:28.712Z,66.80
2023-03-02T06:50:02.724Z,66.63
2023-03-02T06:52:36.813Z,66.62
2023-03-02T06:55:12.182Z,66.77
2023-03-02T06:57:45.745Z,66.81
2023-03-02T07:00:26.151Z,66.76
2023-03-02T07:03:00.535Z,66.68
2023-03-02T07:05:36.261Z,66.60
2023-03-02T07:08:10.975Z,66.79
2023-03-02T07:10:44.410Z,66.67
2023-03-02T07:13:18.513Z,66.76
2023-03-02T07:15:52.330Z,66.86
2023-03-02T07:18:26.243Z,66.89
2023-03-02T07:20:59.886Z,66.96
2023-03-02T07:23:34.401Z,67.04
2023-03-02T07:26:09.446Z,66.97
2023-03-02T07:28:44.797Z,66.99
2023-03-02T07:31:18.813Z,67.05
2023-03-02T07:33:52.870Z,66.89
2023-03-02T07:36:27.557Z,66.80
2023-03-02T07:39:01.410Z,66.76
2023-03-02T07:41:35.878Z,66.72
2023-03-02T07:44:09.800Z,66.55
2023-03-02T07:46:43.911Z,66.29
2023-03-02T07:49:17.754Z,66.39
2023-03-02T07:51:51.214Z,66.46
2023-03-02T07:54:27.035Z,66.40
2023-03-02T07:57:01.844Z,66.40
2023-03-02T07:59:35.646Z,66.38
2023-03-02T08:02:11.308Z,66.21
2023-03-02T08:04:45.552Z,66.24
2023-03-02T08:07:19.196Z,66.03
2023-03-02T08:09:53.068Z,65.98
2023-03-02T08:12:26.493Z,66.04
2023-03-02T08:15:01.327Z,66.02
2023-03-02T08:17:36.167Z,66.02
2023-03-02T08:20:12.222Z,66.04
2023-03-02T08:22:46.358Z,65.93
2023-03-02T08:25:20.174Z,66.02
2023-03-02T08:27:53.563Z,65.95
2023-03-02T08:30:27.456Z,65.76
2023-03-02T08:33:05.343Z,65.69
2023-03-02T08:35:40.767Z,65.60
2023-03-02T08:38:14.644Z,65.53
2023-03-02T08:40:48.559Z,65.39
2023-03-02T08:43:22.814Z,65.39
2023-03-02T08:45:58.185Z,65.26
2023-03-02T08:48:32.620Z,65.12
2023-03-02T08:51:09.536Z,65.03
2023-03-02T08:53:44.753Z,64.97
2023-03-02T08:56:23.031Z,64.76
2023-03-02T08:59:00.005Z,64.60
2023-03-02T09:01:37.749Z,64.30
2023-03-02T09:04:12.741Z,64.22
2023-03-02T09:06:46.996Z,64.24
2023-03-02T09:09:20.283Z,64.17
2023-03-02T09:11:54.067Z,63.83
2023-03-02T09:14:27.703Z,63.68
2023-03-02T09:17:01.370Z,63.54
2023-03-02T09:19:44.314Z,63.45
2023-03-02T09:22:18.901Z,63.50
2023-03-02T09:24:52.516Z,63.64
2023-03-02T09:27:26.149Z,63.49
2023-03-02T09:29:59.725Z,63.43
2023-03-02T09:32:33.732Z,63.59
2023-03-02T09:35:08.611Z,63.83
2023-03-02T09:37:44.302Z,63.60
2023-03-02T09:40:23.993Z,63.72
2023-03-02T09:43:15.991Z,63.72
2023-03-02T09:46:08.482Z,63.59
2023-03-02T09:48:49.009Z,63.20
2023-03-02T09:51:34.044Z,63.30
2023-03-02T09:54:13.298Z,63.35
2023-03-02T09:56:50.140Z,63.29
2023-03-02T09:59:30.460Z,63.24
2023-03-02T10:02:25.818Z,63.13
2023-03-02T10:05:01.060Z,62.91
2023-03-02T10:07:37.306Z,62.71
2023-03-02T10:10:25.082Z,62.67
2023-03-02T10:13:17.465Z,62.28
2023-03-02T10:16:08.469Z,62.15
2023-03-02T10:18:47.511Z,62.03
2023-03-02T10:21:28.709Z,61.83
2023-03-02T10:24:07.309Z,61.64
2023-03-02T10:26:43.180Z,61.55
2023-03-02T10:29:41.429Z,61.45
2023-03-02T10:32:24.026Z,61.15
2023-03-02T10:34:58.266Z,60.95
2023-03-02T10:37:32.988Z,60.75
2023-03-02T10:40:07.174Z,60.73
2023-03-02T10:42:41.992Z,60.70
2023-03-02T10:45:25.754Z,60.64
2023-03-02T10:48:10.721Z,60.46
2023-03-02T10:50:46.170Z,60.09
2023-03-02T10:53:23.478Z,59.85
2023-03-02T10:55:57.274Z,59.56
2023-03-02T10:58:35.074Z,59.33
2023-03-02T11:01:17.374Z,59.27
2023-03-02T11:04:00.953Z,59.25
2023-03-02T11:06:36.349Z,59.27
2023-03-02T11:09:16.788Z,58.93
2023-03-02T11:11:56.132Z,58.84
2023-03-02T11:14:29.414Z,58.41
2023-03-02T11:17:03.709Z,58.47
2023-03-02T11:19:41.918Z,58.48
2023-03-02T11:22:26.953Z,57.89
2023-03-02T11:25:05.602Z,57.90
2023-03-02T11:27:38.700Z,57.75
2023-03-02T11:30:18.930Z,57.78
2023-03-02T11:32:57.668Z,57.85
2023-03-02T11:35:34.115Z,57.79
2023-03-02T11:38:20.962Z,57.68
2023-03-02T11:41:00.757Z,57.71
2023-03-02T11:43:34.817Z,57.81
2023-03-02T11:46:22.043Z,57.96
2023-03-02T11:49:00.896Z,57.30
2023-03-02T11:51:47.139Z,57.30
2023-03-02T11:54:37.261Z,57.44
2023-03-02T11:57:22.796Z,57.49
2023-03-02T11:59:58.785Z,57.75
2023-03-02T12:02:32.379Z,57.85
2023-03-02T12:05:25.725Z,58.20
2023-03-02T12:08:03.816Z,58.38
2023-03-02T12:10:41.818Z,58.50
2023-03-02T12:13:23.338Z,58.36
2023-03-02T12:15:57.706Z,58.25
2023-03-02T12:18:46.481Z,57.99
2023-03-02T12:21:23.001Z,57.99
2023-03-02T12:24:04.329Z,57.88
2023-03-02T12:26:39.730Z,57.81
2023-03-02T12:29:27.403Z,57.76
2023-03-02T12:32:11.801Z,58.02
2023-03-02T12:34:47.798Z,58.31
2023-03-02T12:37:26.641Z,58.38
2023-03-02T12:40:33.663Z,58.47
2023-03-02T12:43:29.423Z,58.41
2023-03-02T12:46:32.051Z,58.45
2023-03-02T12:49:35.886Z,58.40
2023-03-02T12:52:24.758Z,58.47
2023-03-02T12:55:07.603Z,58.48
2023-03-02T12:57:51.493Z,58.32
2023-03-02T13:00:27.540Z,58.07
2023-03-02T13:03:02.703Z,57.92
2023-03-02T13:05:39.178Z,58.02
2023-03-02T13:08:19.344Z,57.68
2023-03-02T13:10:58.362Z,57.60
2023-03-02T13:13:40.028Z,57.65
2023-03-02T13:16:25.241Z,57.81
2023-03-02T13:19:00.608Z,57.81
2023-03-02T13:21:37.911Z,57.86
2023-03-02T13:24:36.475Z,57.82
2023-03-02T13:27:17.640Z,57.91
2023-03-02T13:29:52.481Z,57.97
2023-03-02T13:32:28.647Z,58.05
2023-03-02T13:35:05.482Z,58.18
2023-03-02T13:37:44.271Z,58.23
2023-03-02T13:40:36.206Z,58.32
2023-03-02T13:43:32.800Z,58.32
2023-03-02T13:46:07.508Z,58.22
2023-03-02T13:48:41.212Z,58.42
2023-03-02T13:51:20.672Z,58.26
2023-03-02T13:53:58.742Z,58.07
2023-03-02T13:56:34.721Z,58.00
2023-03-02T13:59:13.715Z,57.78
2023-03-02T14:01:45.964Z,57.71
2023-03-02T14:04:23.709Z,57.62
2023-03-02T14:06:58.429Z,57.58
2023-03-02T14:09:32.280Z,57.58
2023-03-02T14:12:07.374Z,57.66
2023-03-02T14:14:45.251Z,57.50
2023-03-02T14:17:24.144Z,57.59
2023-03-02T14:19:58.534Z,57.47
2023-03-02T14:22:32.645Z,57.47
2023-03-02T14:25:07.216Z,57.43
2023-03-02T14:27:41.421Z,57.57
2023-03-02T14:30:23.031Z,57.49
2023-03-02T14:32:56.512Z,57.56
2023-03-02T14:35:30.041Z,57.52
2023-03-02T14:38:03.619Z,57.36
2023-03-02T14:40:37.092Z,57.34
2023-03-02T14:43:12.691Z,57.28
2023-03-02T14:45:46.914Z,57.22
2023-03-02T14:48:20.928Z,57.24
2023-03-02T14:50:55.015Z,57.36
2023-03-02T14:53:33.343Z,57.29
2023-03-02T14:56:08.360Z,57.24
2023-03-02T14:58:42.334Z,57.06
2023-03-02T15:01:16.715Z,56.73
2023-03-02T15:03:50.276Z,56.65
2023-03-02T15:06:29.619Z,56.49
2023-03-02T15:09:05.074Z,56.43
2023-03-02T15:11:38.541Z,56.42
2023-03-02T15:14:12.043Z,56.20
2023-03-02T15:16:45.785Z,56.45
2023-03-02T15:19:20.577Z,56.58
2023-03-02T15:21:53.989Z,56.45
2023-03-02T15:24:27.423Z,56.66
2023-03-02T15:27:01.536Z,56.60
2023-03-02T15:29:35.591Z,56.64
2023-03-02T15:32:10.187Z,56.73
2023-03-02T15:34:44.526Z,56.76
2023-03-02T15:37:18.558Z,56.69
2023-03-02T15:39:57.191Z,56.79
2023-03-02T15:42:31.331Z,56.83
2023-03-02T15:45:05.249Z,56.85
2023-03-02T15:47:39.455Z,56.69
2023-03-02T15:50:15.192Z,56.69
2023-03-02T15:52:48.652Z,56.83
2023-03-02T15:55:22.484Z,56.85
2023-03-02T15:57:59.243Z,56.82
2023-03-02T16:00:36.358Z,56.72
2023-03-02T16:03:10.368Z,56.66
2023-03-02T16:05:45.109Z,56.60
2023-03-02T16:08:19.300Z,56.83
2023-03-02T16:11:02.034Z,56.96
2023-03-02T16:13:37.246Z,57.14
2023-03-02T16:16:13.231Z,57.17
2023-03-02T16:18:51.701Z,57.44
2023-03-02T16:21:25.994Z,57.58
2023-03-02T16:24:04.298Z,57.72
2023-03-02T16:26:39.729Z,57.84
2023-03-02T16:29:15.736Z,57.91
2023-03-02T16:31:51.121Z,58.02
2023-03-02T16:34:25.207Z,58.20
2023-03-02T16:36:59.699Z,58.36
2023-03-02T16:39:33.573Z,58.54
2023-03-02T16:42:08.635Z,58.65
2023-03-02T16:44:45.112Z,58.65
2023-03-02T16:47:19.322Z,58.78
2023-03-02T16:49:53.209Z,59.08
2023-03-02T16:52:26.766Z,59.20
2023-03-02T16:55:01.058Z,59.32
2023-03-02T16:57:35.971Z,59.41
2023-03-02T17:00:15.086Z,59.57
2023-03-02T17:02:52.556Z,59.68
2023-03-02T17:05:28.935Z,59.76
2023-03-02T17:08:05.871Z,59.95
2023-03-02T17:10:42.366Z,59.93
2023-03-02T17:13:17.526Z,59.98
2023-03-02T17:15:52.054Z,60.09
2023-03-02T17:18:27.862Z,60.15
2023-03-02T17:21:04.732Z,60.27
2023-03-02T17:23:38.621Z,60.45
2023-03-02T17:26:13.319Z,60.63
2023-03-02T17:28:47.597Z,60.77
2023-03-02T17:31:27.261Z,60.98
2023-03-02T17:34:02.516Z,60.98
2023-03-02T17:36:37.680Z,61.00
2023-03-02T17:39:13.452Z,61.00
2023-03-02T17:41:48.073Z,61.00
2023-03-02T17:44:28.237Z,61.08
2023-03-02T17:47:08.733Z,61.18
2023-03-02T17:49:45.848Z,61.34
2023-03-02T17:52:22.520Z,61.38
2023-03-02T17:54:58.242Z,61.39
2023-03-02T17:57:35.330Z,61.31
2023-03-02T18:00:14.587Z,61.53
2023-03-02T18:02:50.007Z,61.74
2023-03-02T18:05:30.031Z,61.84
2023-03-02T18:08:08.542Z,61.86
2023-03-02T18:10:43.236Z,61.84
2023-03-02T18:13:20.984Z,61.91
2023-03-02T18:15:56.759Z,62.02
2023-03-02T18:18:34.515Z,62.10
2023-03-02T18:21:11.843Z,62.26
2023-03-02T18:23:51.944Z,62.29
2023-03-02T18:26:28.184Z,62.34
2023-03-02T18:29:05.128Z,62.50
2023-03-02T18:31:40.526Z,62.59
2023-03-02T18:34:21.008Z,62.73
2023-03-02T18:37:00.839Z,62.82
2023-03-02T18:39:39.623Z,62.91
2023-03-02T18:42:16.354Z,62.92
2023-03-02T18:44:53.835Z,62.91
2023-03-02T18:47:37.547Z,62.90
2023-03-02T18:50:16.639Z,62.94
2023-03-02T18:52:51.896Z,63.14
2023-03-02T18:55:28.887Z,63.20
2023-03-02T18:58:05.077Z,63.29
2023-03-02T19:00:42.345Z,63.30
2023-03-02T19:03:19.243Z,63.55
2023-03-02T19:05:58.029Z,63.61
2023-03-02T19:08:39.026Z,63.67
2023-03-02T19:11:15.715Z,63.69
2023-03-02T19:13:53.800Z,63.79
2023-03-02T19:16:35.719Z,63.71
2023-03-02T19:19:11.829Z,63.80
2023-03-02T19:21:47.362Z,63.95
2023-03-02T19:24:23.536Z,64.02
2023-03-02T19:26:59.560Z,63.86
2023-03-02T19:29:36.919Z,63.92
2023-03-02T19:32:21.961Z,64.13
2023-03-02T19:35:03.937Z,64.22
2023-03-02T19:37:39.552Z,64.11
2023-03-02T19:40:22.960Z,64.20
2023-03-02T19:43:03.012Z,64.24
2023-03-02T19:45:40.874Z,64.19
2023-03-02T19:48:17.721Z,64.17
2023-03-02T19:50:55.834Z,64.31
2023-03-02T19:53:33.466Z,64.44
2023-03-02T19:56:13.978Z,64.38
2023-03-02T19:58:55.224Z,64.46
2023-03-02T20:01:33.608Z,64.58
2023-03-02T20:04:08.257Z,64.69
2023-03-02T20:06:47.320Z,64.89
2023-03-02T20:09:22.301Z,64.85
2023-03-02T20:12:03.426Z,64.92
2023-03-02T20:14:39.701Z,64.92
2023-03-02T20:17:17.825Z,64.86
2023-03-02T20:19:58.262Z,64.96
2023-03-02T20:22:35.015Z,64.89
2023-03-02T20:25:12.188Z,65.07
2023-03-02T20:27:50.141Z,65.16
2023-03-02T20:30:36.475Z,65.30
2023-03-02T20:33:18.341Z,65.39
2023-03-02T20:35:59.953Z,65.36
2023-03-02T20:38:44.548Z,65.43
2023-03-02T20:41:24.786Z,65.48
2023-03-02T20:44:04.716Z,65.59
2023-03-02T20:46:43.983Z,65.63
2023-03-02T20:49:20.953Z,65.63
2023-03-02T20:51:58.339Z,65.66
2023-03-02T20:54:38.057Z,65.60
2023-03-02T20:57:21.428Z,65.51
2023-03-02T20:59:57.518Z,65.53
2023-03-02T21:02:36.684Z,65.67
2023-03-02T21:05:15.590Z,65.87
2023-03-02T21:07:53.055Z,65.75
2023-03-02T21:10:31.320Z,65.74
2023-03-02T21:13:12.215Z,65.85
2023-03-02T21:15:46.589Z,65.91
2023-03-02T21:18:26.108Z,65.90
2023-03-02T21:21:00.216Z,66.12
2023-03-02T21:23:36.046Z,66.19
2023-03-02T21:26:13.438Z,66.51
2023-03-02T21:28:48.868Z,66.56
2023-03-02T21:31:24.232Z,66.56
2023-03-02T21:34:00.559Z,66.65
2023-03-02T21:36:36.695Z,66.87
2023-03-02T21:39:12.504Z,66.97
2023-03-02T21:41:47.604Z,67.09
2023-03-02T21:44:23.521Z,67.13
2023-03-02T21:46:57.521Z,67.08
2023-03-02T21:49:32.303Z,67.14
2023-03-02T21:52:08.557Z,67.21
2023-03-02T21:54:42.366Z,67.33
2023-03-02T21:57:15.781Z,67.24
2023-03-02T21:59:49.424Z,67.30
2023-03-02T22:02:23.259Z,67.36
2023-03-02T22:04:57.418Z,67.28
2023-03-02T22:07:31.666Z,67.42
2023-03-02T22:10:05.661Z,67.49
2023-03-02T22:12:39.260Z,67.48
2023-03-02T22:15:17.404Z,67.47
2023-03-02T22:17:52.753Z,67.61
2023-03-02T22:20:26.735Z,67.65
2023-03-02T22:23:01.850Z,67.58
2023-03-02T22:25:35.861Z,67.69
2023-03-02T22:28:18.364Z,67.85
2023-03-02T22:30:53.395Z,68.05
2023-03-02T22:33:29.132Z,68.10
2023-03-02T22:36:14.207Z,68.19
2023-03-02T22:38:48.224Z,68.17
2023-03-02T22:41:23.391Z,68.29
2023-03-02T22:43:59.087Z,68.39
2023-03-02T22:46:32.627Z,68.46
2023-03-02T22:49:18.258Z,68.49
2023-03-02T22:51:51.876Z,68.62
2023-03-02T22:54:31.388Z,68.60
2023-03-02T22:57:07.590Z,68.63
2023-03-02T22:59:41.970Z,68.62
2023-03-02T23:02:22.770Z,68.58
2023-03-02T23:04:56.214Z,68.54
2023-03-02T23:07:30.308Z,68.67
2023-03-02T23:10:04.041Z,68.72
2023-03-02T23:12:38.420Z,68.74
2023-03-02T23:15:22.524Z,68.67
2023-03-02T23:17:59.084Z,68.78
2023-03-02T23:20:35.165Z,68.84
2023-03-02T23:23:08.981Z,68.92
2023-03-02T23:25:42.682Z,68.95
2023-03-02T23:28:16.490Z,68.93
2023-03-02T23:30:50.423Z,69.01
2023-03-02T23:33:24.253Z,69.05
2023-03-02T23:35:57.927Z,68.98
2023-03-02T23:38:31.651Z,69.05
2023-03-02T23:41:05.136Z,69.08
2023-03-02T23:43:38.869Z,69.19
2023-03-02T23:46:14.561Z,69.28
2023-03-02T23:48:48.379Z,69.32
2023-03-02T23:51:22.447Z,69.49
2023-03-02T23:53:56.458Z,69.54
2023-03-02T23:56:29.928Z,69.52
2023-03-02T23:59:04.132Z,69.39
